sensor_id;sensor_type;location;lat;lon;timestamp;P1;durP1;ratioP1;P2;durP2;ratioP2
20367;SDS011;10343;52.402;9.796;2024-02-21T00:02:21;19.13;;;2.08;;
20367;SDS011;10343;52.402;9.796;2024-02-21T00:04:50;14.75;;;2.22;;
20367;SDS011;10343;52.402;9.796;2024-02-21T00:07:18;11.07;;;2.03;;
20367;SDS011;10343;52.402;9.796;2024-02-21T00:09:46;20.15;;;2.70;;
20367;SDS011;10343;52.402;9.796;2024-02-21T00:12:14;17.80;;;2.30;;
20367;SDS011;10343;52.402;9.796;2024-02-21T00:14:42;17.55;;;2.97;;
20367;SDS011;10343;52.402;9.796;2024-02-21T00:17:11;14.00;;;1.90;;
20367;SDS011;10343;52.402;9.796;2024-02-21T00:19:39;15.30;;;2.85;;
20367;SDS011;10343;52.402;9.796;2024-02-21T00:22:07;15.88;;;2.85;;
20367;SDS011;10343;52.402;9.796;2024-02-21T00:24:36;15.35;;;2.58;;
20367;SDS011;10343;52.402;9.796;2024-02-21T00:27:04;15.45;;;2.80;;
20367;SDS011;10343;52.402;9.796;2024-02-21T00:29:32;18.40;;;3.28;;
20367;SDS011;10343;52.402;9.796;2024-02-21T00:32:01;16.98;;;3.38;;
20367;SDS011;10343;52.402;9.796;2024-02-21T00:34:31;19.42;;;2.95;;
20367;SDS011;10343;52.402;9.796;2024-02-21T00:36:59;22.02;;;3.13;;
20367;SDS011;10343;52.402;9.796;2024-02-21T00:39:27;24.80;;;3.53;;
20367;SDS011;10343;52.402;9.796;2024-02-21T00:41:55;20.95;;;4.10;;
20367;SDS011;10343;52.402;9.796;2024-02-21T00:44:23;18.55;;;2.38;;
20367;SDS011;10343;52.402;9.796;2024-02-21T00:46:51;16.95;;;3.80;;
20367;SDS011;10343;52.402;9.796;2024-02-21T00:49:19;17.77;;;3.53;;
20367;SDS011;10343;52.402;9.796;2024-02-21T00:51:49;20.38;;;4.30;;
20367;SDS011;10343;52.402;9.796;2024-02-21T00:54:17;23.17;;;4.78;;
20367;SDS011;10343;52.402;9.796;2024-02-21T00:56:45;19.15;;;3.70;;
20367;SDS011;10343;52.402;9.796;2024-02-21T00:59:13;19.00;;;4.22;;
20367;SDS011;10343;52.402;9.796;2024-02-21T01:01:42;21.67;;;3.08;;
20367;SDS011;10343;52.402;9.796;2024-02-21T01:04:11;20.88;;;3.85;;
20367;SDS011;10343;52.402;9.796;2024-02-21T01:06:42;18.52;;;3.95;;
20367;SDS011;10343;52.402;9.796;2024-02-21T01:09:11;19.58;;;3.47;;
20367;SDS011;10343;52.402;9.796;2024-02-21T01:11:39;27.52;;;4.65;;
20367;SDS011;10343;52.402;9.796;2024-02-21T01:14:08;19.10;;;3.47;;
20367;SDS011;10343;52.402;9.796;2024-02-21T01:16:37;22.83;;;4.10;;
20367;SDS011;10343;52.402;9.796;2024-02-21T01:19:05;19.70;;;4.05;;
20367;SDS011;10343;52.402;9.796;2024-02-21T01:21:33;17.35;;;3.70;;
20367;SDS011;10343;52.402;9.796;2024-02-21T01:24:01;17.67;;;3.08;;
20367;SDS011;10343;52.402;9.796;2024-02-21T01:26:31;24.45;;;4.53;;
20367;SDS011;10343;52.402;9.796;2024-02-21T01:28:58;17.95;;;3.17;;
20367;SDS011;10343;52.402;9.796;2024-02-21T01:31:26;20.30;;;3.40;;
20367;SDS011;10343;52.402;9.796;2024-02-21T01:33:54;26.27;;;3.60;;
20367;SDS011;10343;52.402;9.796;2024-02-21T01:36:22;17.27;;;3.90;;
20367;SDS011;10343;52.402;9.796;2024-02-21T01:38:50;20.60;;;2.67;;
20367;SDS011;10343;52.402;9.796;2024-02-21T01:41:18;20.15;;;3.13;;
20367;SDS011;10343;52.402;9.796;2024-02-21T01:43:47;18.92;;;4.80;;
20367;SDS011;10343;52.402;9.796;2024-02-21T01:46:15;23.77;;;3.15;;
20367;SDS011;10343;52.402;9.796;2024-02-21T01:48:43;16.02;;;2.90;;
20367;SDS011;10343;52.402;9.796;2024-02-21T01:51:12;18.65;;;4.00;;
20367;SDS011;10343;52.402;9.796;2024-02-21T01:53:42;22.05;;;4.40;;
20367;SDS011;10343;52.402;9.796;2024-02-21T01:56:12;22.05;;;3.33;;
20367;SDS011;10343;52.402;9.796;2024-02-21T01:58:42;22.92;;;4.10;;
20367;SDS011;10343;52.402;9.796;2024-02-21T02:01:12;16.23;;;2.70;;
20367;SDS011;10343;52.402;9.796;2024-02-21T02:03:45;19.52;;;2.58;;
20367;SDS011;10343;52.402;9.796;2024-02-21T02:06:14;21.88;;;3.65;;
20367;SDS011;10343;52.402;9.796;2024-02-21T02:08:42;17.65;;;3.60;;
20367;SDS011;10343;52.402;9.796;2024-02-21T02:11:10;13.48;;;2.70;;
20367;SDS011;10343;52.402;9.796;2024-02-21T02:13:40;22.52;;;3.58;;
20367;SDS011;10343;52.402;9.796;2024-02-21T02:16:08;14.48;;;3.97;;
20367;SDS011;10343;52.402;9.796;2024-02-21T02:18:38;20.75;;;3.03;;
20367;SDS011;10343;52.402;9.796;2024-02-21T02:21:08;17.25;;;2.67;;
20367;SDS011;10343;52.402;9.796;2024-02-21T02:23:42;16.58;;;2.85;;
20367;SDS011;10343;52.402;9.796;2024-02-21T02:26:10;19.30;;;2.78;;
20367;SDS011;10343;52.402;9.796;2024-02-21T02:28:38;18.23;;;3.25;;
20367;SDS011;10343;52.402;9.796;2024-02-21T02:31:06;22.60;;;3.80;;
20367;SDS011;10343;52.402;9.796;2024-02-21T02:33:34;18.80;;;3.65;;
20367;SDS011;10343;52.402;9.796;2024-02-21T02:36:03;18.58;;;3.75;;
20367;SDS011;10343;52.402;9.796;2024-02-21T02:38:31;23.35;;;4.10;;
20367;SDS011;10343;52.402;9.796;2024-02-21T02:41:00;16.10;;;4.55;;
20367;SDS011;10343;52.402;9.796;2024-02-21T02:43:29;19.45;;;3.78;;
20367;SDS011;10343;52.402;9.796;2024-02-21T02:45:58;18.42;;;4.30;;
20367;SDS011;10343;52.402;9.796;2024-02-21T02:48:26;16.45;;;4.00;;
20367;SDS011;10343;52.402;9.796;2024-02-21T02:50:54;19.67;;;4.72;;
20367;SDS011;10343;52.402;9.796;2024-02-21T02:53:22;12.77;;;3.45;;
20367;SDS011;10343;52.402;9.796;2024-02-21T02:55:50;18.38;;;3.08;;
20367;SDS011;10343;52.402;9.796;2024-02-21T02:58:20;24.65;;;4.30;;
20367;SDS011;10343;52.402;9.796;2024-02-21T03:00:48;18.80;;;3.83;;
20367;SDS011;10343;52.402;9.796;2024-02-21T03:03:16;13.05;;;3.33;;
20367;SDS011;10343;52.402;9.796;2024-02-21T03:05:44;23.40;;;3.38;;
20367;SDS011;10343;52.402;9.796;2024-02-21T03:08:13;17.67;;;3.45;;
20367;SDS011;10343;52.402;9.796;2024-02-21T03:10:41;20.42;;;4.13;;
20367;SDS011;10343;52.402;9.796;2024-02-21T03:13:10;17.23;;;3.28;;
20367;SDS011;10343;52.402;9.796;2024-02-21T03:15:40;16.90;;;3.17;;
20367;SDS011;10343;52.402;9.796;2024-02-21T03:18:08;15.85;;;3.45;;
20367;SDS011;10343;52.402;9.796;2024-02-21T03:20:36;15.35;;;3.95;;
20367;SDS011;10343;52.402;9.796;2024-02-21T03:23:04;17.42;;;3.08;;
20367;SDS011;10343;52.402;9.796;2024-02-21T03:25:32;22.27;;;3.70;;
20367;SDS011;10343;52.402;9.796;2024-02-21T03:28:01;20.60;;;4.32;;
20367;SDS011;10343;52.402;9.796;2024-02-21T03:30:30;20.45;;;3.25;;
20367;SDS011;10343;52.402;9.796;2024-02-21T03:32:59;19.55;;;2.85;;
20367;SDS011;10343;52.402;9.796;2024-02-21T03:35:28;19.63;;;3.75;;
20367;SDS011;10343;52.402;9.796;2024-02-21T03:37:55;18.10;;;2.80;;
20367;SDS011;10343;52.402;9.796;2024-02-21T03:40:23;16.70;;;3.55;;
20367;SDS011;10343;52.402;9.796;2024-02-21T03:42:51;15.15;;;2.90;;
20367;SDS011;10343;52.402;9.796;2024-02-21T03:45:19;17.75;;;4.13;;
20367;SDS011;10343;52.402;9.796;2024-02-21T03:47:47;15.48;;;2.45;;
20367;SDS011;10343;52.402;9.796;2024-02-21T03:50:16;16.40;;;3.28;;
20367;SDS011;10343;52.402;9.796;2024-02-21T03:52:45;14.77;;;2.85;;
20367;SDS011;10343;52.402;9.796;2024-02-21T03:55:13;15.77;;;2.78;;
20367;SDS011;10343;52.402;9.796;2024-02-21T03:57:41;23.45;;;3.58;;
20367;SDS011;10343;52.402;9.796;2024-02-21T04:00:10;13.45;;;3.25;;
20367;SDS011;10343;52.402;9.796;2024-02-21T04:02:39;15.10;;;2.90;;
20367;SDS011;10343;52.402;9.796;2024-02-21T04:05:07;21.80;;;4.07;;
20367;SDS011;10343;52.402;9.796;2024-02-21T04:07:39;19.25;;;3.38;;
20367;SDS011;10343;52.402;9.796;2024-02-21T04:10:08;19.70;;;2.88;;
20367;SDS011;10343;52.402;9.796;2024-02-21T04:12:36;16.42;;;2.63;;
20367;SDS011;10343;52.402;9.796;2024-02-21T04:15:05;17.42;;;3.55;;
20367;SDS011;10343;52.402;9.796;2024-02-21T04:17:34;23.80;;;3.40;;
20367;SDS011;10343;52.402;9.796;2024-02-21T04:20:03;15.02;;;2.85;;
20367;SDS011;10343;52.402;9.796;2024-02-21T04:22:34;13.00;;;2.10;;
20367;SDS011;10343;52.402;9.796;2024-02-21T04:25:04;15.30;;;2.72;;
20367;SDS011;10343;52.402;9.796;2024-02-21T04:27:33;15.40;;;3.55;;
20367;SDS011;10343;52.402;9.796;2024-02-21T04:30:01;15.65;;;2.65;;
20367;SDS011;10343;52.402;9.796;2024-02-21T04:32:29;15.93;;;2.90;;
20367;SDS011;10343;52.402;9.796;2024-02-21T04:34:57;13.88;;;2.33;;
20367;SDS011;10343;52.402;9.796;2024-02-21T04:37:25;23.05;;;1.80;;
20367;SDS011;10343;52.402;9.796;2024-02-21T04:39:54;15.95;;;2.63;;
20367;SDS011;10343;52.402;9.796;2024-02-21T04:42:23;15.52;;;2.47;;
20367;SDS011;10343;52.402;9.796;2024-02-21T04:44:51;17.17;;;3.35;;
20367;SDS011;10343;52.402;9.796;2024-02-21T04:47:19;16.40;;;3.58;;
20367;SDS011;10343;52.402;9.796;2024-02-21T04:49:47;17.13;;;3.30;;
20367;SDS011;10343;52.402;9.796;2024-02-21T04:52:15;20.63;;;2.92;;
20367;SDS011;10343;52.402;9.796;2024-02-21T04:54:43;15.52;;;3.70;;
20367;SDS011;10343;52.402;9.796;2024-02-21T04:57:11;23.00;;;4.70;;
20367;SDS011;10343;52.402;9.796;2024-02-21T04:59:44;15.95;;;3.95;;
20367;SDS011;10343;52.402;9.796;2024-02-21T05:02:14;25.17;;;5.18;;
20367;SDS011;10343;52.402;9.796;2024-02-21T05:04:42;17.77;;;4.85;;
20367;SDS011;10343;52.402;9.796;2024-02-21T05:07:11;19.88;;;3.95;;
20367;SDS011;10343;52.402;9.796;2024-02-21T05:09:39;18.52;;;4.18;;
20367;SDS011;10343;52.402;9.796;2024-02-21T05:12:07;12.60;;;2.97;;
20367;SDS011;10343;52.402;9.796;2024-02-21T05:14:35;19.17;;;4.07;;
20367;SDS011;10343;52.402;9.796;2024-02-21T05:17:05;23.25;;;4.60;;
20367;SDS011;10343;52.402;9.796;2024-02-21T05:19:33;20.05;;;5.07;;
20367;SDS011;10343;52.402;9.796;2024-02-21T05:22:02;19.98;;;5.03;;
20367;SDS011;10343;52.402;9.796;2024-02-21T05:24:30;21.92;;;4.15;;
20367;SDS011;10343;52.402;9.796;2024-02-21T05:26:59;16.42;;;4.65;;
20367;SDS011;10343;52.402;9.796;2024-02-21T05:29:26;29.85;;;4.80;;
20367;SDS011;10343;52.402;9.796;2024-02-21T05:31:55;15.70;;;4.07;;
20367;SDS011;10343;52.402;9.796;2024-02-21T05:34:25;21.35;;;4.75;;
20367;SDS011;10343;52.402;9.796;2024-02-21T05:36:54;14.35;;;2.60;;
20367;SDS011;10343;52.402;9.796;2024-02-21T05:39:24;17.98;;;3.75;;
20367;SDS011;10343;52.402;9.796;2024-02-21T05:41:52;18.15;;;3.38;;
20367;SDS011;10343;52.402;9.796;2024-02-21T05:44:20;20.08;;;4.07;;
20367;SDS011;10343;52.402;9.796;2024-02-21T05:46:49;13.60;;;2.88;;
20367;SDS011;10343;52.402;9.796;2024-02-21T05:49:17;15.13;;;2.95;;
20367;SDS011;10343;52.402;9.796;2024-02-21T05:51:47;16.63;;;2.60;;
20367;SDS011;10343;52.402;9.796;2024-02-21T05:54:15;15.57;;;3.17;;
20367;SDS011;10343;52.402;9.796;2024-02-21T05:56:46;13.85;;;3.60;;
20367;SDS011;10343;52.402;9.796;2024-02-21T05:59:14;17.50;;;3.47;;
20367;SDS011;10343;52.402;9.796;2024-02-21T06:01:42;13.23;;;3.72;;
20367;SDS011;10343;52.402;9.796;2024-02-21T06:04:11;16.67;;;2.75;;
20367;SDS011;10343;52.402;9.796;2024-02-21T06:06:39;18.40;;;3.95;;
20367;SDS011;10343;52.402;9.796;2024-02-21T06:09:11;15.20;;;3.45;;
20367;SDS011;10343;52.402;9.796;2024-02-21T06:11:39;16.00;;;3.25;;
20367;SDS011;10343;52.402;9.796;2024-02-21T06:14:11;15.40;;;3.30;;
20367;SDS011;10343;52.402;9.796;2024-02-21T06:16:39;14.68;;;3.35;;
20367;SDS011;10343;52.402;9.796;2024-02-21T06:19:07;14.70;;;3.47;;
20367;SDS011;10343;52.402;9.796;2024-02-21T06:21:36;15.93;;;2.33;;
20367;SDS011;10343;52.402;9.796;2024-02-21T06:24:05;15.48;;;2.45;;
20367;SDS011;10343;52.402;9.796;2024-02-21T06:26:34;14.65;;;4.05;;
20367;SDS011;10343;52.402;9.796;2024-02-21T06:29:03;16.23;;;3.65;;
20367;SDS011;10343;52.402;9.796;2024-02-21T06:31:31;12.65;;;2.78;;
20367;SDS011;10343;52.402;9.796;2024-02-21T06:33:59;14.32;;;3.80;;
20367;SDS011;10343;52.402;9.796;2024-02-21T06:36:27;13.93;;;2.60;;
20367;SDS011;10343;52.402;9.796;2024-02-21T06:38:55;22.17;;;3.75;;
20367;SDS011;10343;52.402;9.796;2024-02-21T06:41:23;16.30;;;3.58;;
20367;SDS011;10343;52.402;9.796;2024-02-21T06:43:53;12.90;;;1.67;;
20367;SDS011;10343;52.402;9.796;2024-02-21T06:46:24;18.85;;;3.47;;
20367;SDS011;10343;52.402;9.796;2024-02-21T06:48:53;12.32;;;2.28;;
20367;SDS011;10343;52.402;9.796;2024-02-21T06:51:23;20.33;;;4.20;;
20367;SDS011;10343;52.402;9.796;2024-02-21T06:53:51;14.23;;;3.22;;
20367;SDS011;10343;52.402;9.796;2024-02-21T06:56:19;18.65;;;3.40;;
20367;SDS011;10343;52.402;9.796;2024-02-21T06:58:48;16.67;;;2.45;;
20367;SDS011;10343;52.402;9.796;2024-02-21T07:01:17;16.48;;;3.38;;
20367;SDS011;10343;52.402;9.796;2024-02-21T07:03:45;15.13;;;3.55;;
20367;SDS011;10343;52.402;9.796;2024-02-21T07:06:15;14.57;;;3.25;;
20367;SDS011;10343;52.402;9.796;2024-02-21T07:08:43;14.15;;;2.88;;
20367;SDS011;10343;52.402;9.796;2024-02-21T07:11:11;14.70;;;3.20;;
20367;SDS011;10343;52.402;9.796;2024-02-21T07:13:40;16.15;;;2.75;;
20367;SDS011;10343;52.402;9.796;2024-02-21T07:16:08;19.00;;;3.00;;
20367;SDS011;10343;52.402;9.796;2024-02-21T07:18:37;17.75;;;2.90;;
20367;SDS011;10343;52.402;9.796;2024-02-21T07:21:05;14.80;;;2.92;;
20367;SDS011;10343;52.402;9.796;2024-02-21T07:23:33;16.63;;;2.17;;
20367;SDS011;10343;52.402;9.796;2024-02-21T07:26:03;18.55;;;2.63;;
20367;SDS011;10343;52.402;9.796;2024-02-21T07:28:32;15.38;;;2.38;;
20367;SDS011;10343;52.402;9.796;2024-02-21T07:31:00;19.60;;;2.63;;
20367;SDS011;10343;52.402;9.796;2024-02-21T07:33:27;11.43;;;1.58;;
20367;SDS011;10343;52.402;9.796;2024-02-21T07:35:58;14.48;;;2.63;;
20367;SDS011;10343;52.402;9.796;2024-02-21T07:38:26;16.77;;;2.03;;
20367;SDS011;10343;52.402;9.796;2024-02-21T07:40:54;12.48;;;1.48;;
20367;SDS011;10343;52.402;9.796;2024-02-21T07:43:22;11.98;;;2.17;;
20367;SDS011;10343;52.402;9.796;2024-02-21T07:45:53;11.77;;;1.95;;
20367;SDS011;10343;52.402;9.796;2024-02-21T07:48:21;13.18;;;1.27;;
20367;SDS011;10343;52.402;9.796;2024-02-21T07:50:51;11.02;;;2.28;;
20367;SDS011;10343;52.402;9.796;2024-02-21T07:53:20;11.27;;;1.60;;
20367;SDS011;10343;52.402;9.796;2024-02-21T07:55:48;10.63;;;1.25;;
20367;SDS011;10343;52.402;9.796;2024-02-21T07:58:16;14.20;;;1.60;;
20367;SDS011;10343;52.402;9.796;2024-02-21T08:00:44;16.27;;;2.22;;
20367;SDS011;10343;52.402;9.796;2024-02-21T08:03:13;10.57;;;1.00;;
20367;SDS011;10343;52.402;9.796;2024-02-21T08:05:42;9.68;;;1.08;;
20367;SDS011;10343;52.402;9.796;2024-02-21T08:08:10;12.68;;;1.83;;
20367;SDS011;10343;52.402;9.796;2024-02-21T08:10:39;13.65;;;1.55;;
20367;SDS011;10343;52.402;9.796;2024-02-21T08:13:06;14.63;;;1.63;;
20367;SDS011;10343;52.402;9.796;2024-02-21T08:15:34;9.85;;;1.48;;
20367;SDS011;10343;52.402;9.796;2024-02-21T08:18:05;10.43;;;0.70;;
20367;SDS011;10343;52.402;9.796;2024-02-21T08:20:33;17.63;;;2.15;;
20367;SDS011;10343;52.402;9.796;2024-02-21T08:23:01;14.18;;;0.93;;
20367;SDS011;10343;52.402;9.796;2024-02-21T08:25:29;17.48;;;1.15;;
20367;SDS011;10343;52.402;9.796;2024-02-21T08:27:59;11.20;;;1.73;;
20367;SDS011;10343;52.402;9.796;2024-02-21T08:30:27;18.90;;;0.98;;
20367;SDS011;10343;52.402;9.796;2024-02-21T08:32:55;9.10;;;1.00;;
20367;SDS011;10343;52.402;9.796;2024-02-21T08:35:23;12.85;;;1.17;;
20367;SDS011;10343;52.402;9.796;2024-02-21T08:37:51;16.17;;;1.33;;
20367;SDS011;10343;52.402;9.796;2024-02-21T08:40:19;13.63;;;1.02;;
20367;SDS011;10343;52.402;9.796;2024-02-21T08:42:48;11.90;;;1.02;;
20367;SDS011;10343;52.402;9.796;2024-02-21T08:45:18;13.55;;;0.77;;
20367;SDS011;10343;52.402;9.796;2024-02-21T08:47:48;8.90;;;0.82;;
20367;SDS011;10343;52.402;9.796;2024-02-21T08:50:16;9.68;;;1.35;;
20367;SDS011;10343;52.402;9.796;2024-02-21T08:52:54;15.63;;;0.80;;
20367;SDS011;10343;52.402;9.796;2024-02-21T08:55:23;7.63;;;0.40;;
20367;SDS011;10343;52.402;9.796;2024-02-21T08:57:51;15.40;;;0.43;;
20367;SDS011;10343;52.402;9.796;2024-02-21T09:00:21;10.77;;;0.50;;
20367;SDS011;10343;52.402;9.796;2024-02-21T09:02:54;13.40;;;0.30;;
20367;SDS011;10343;52.402;9.796;2024-02-21T09:05:23;7.93;;;0.20;;
20367;SDS011;10343;52.402;9.796;2024-02-21T09:07:52;7.85;;;0.40;;
20367;SDS011;10343;52.402;9.796;2024-02-21T09:10:21;8.27;;;0.20;;
20367;SDS011;10343;52.402;9.796;2024-02-21T09:12:49;10.60;;;0.40;;
20367;SDS011;10343;52.402;9.796;2024-02-21T09:15:17;10.25;;;0.30;;
20367;SDS011;10343;52.402;9.796;2024-02-21T09:17:46;6.70;;;0.35;;
20367;SDS011;10343;52.402;9.796;2024-02-21T09:20:14;8.27;;;0.35;;
20367;SDS011;10343;52.402;9.796;2024-02-21T09:22:43;7.38;;;0.15;;
20367;SDS011;10343;52.402;9.796;2024-02-21T09:25:11;7.63;;;0.20;;
20367;SDS011;10343;52.402;9.796;2024-02-21T09:27:39;6.10;;;0.20;;
20367;SDS011;10343;52.402;9.796;2024-02-21T09:30:07;7.40;;;0.30;;
20367;SDS011;10343;52.402;9.796;2024-02-21T09:32:36;8.25;;;0.10;;
20367;SDS011;10343;52.402;9.796;2024-02-21T09:35:06;8.50;;;0.30;;
20367;SDS011;10343;52.402;9.796;2024-02-21T09:37:35;6.32;;;0.17;;
20367;SDS011;10343;52.402;9.796;2024-02-21T09:40:05;7.05;;;0.20;;
20367;SDS011;10343;52.402;9.796;2024-02-21T09:42:36;3.95;;;0.10;;
20367;SDS011;10343;52.402;9.796;2024-02-21T09:45:07;6.22;;;0.10;;
20367;SDS011;10343;52.402;9.796;2024-02-21T09:47:44;6.72;;;0.10;;
20367;SDS011;10343;52.402;9.796;2024-02-21T09:50:26;6.63;;;0.10;;
20367;SDS011;10343;52.402;9.796;2024-02-21T09:52:56;4.40;;;0.30;;
20367;SDS011;10343;52.402;9.796;2024-02-21T09:55:28;5.78;;;0.10;;
20367;SDS011;10343;52.402;9.796;2024-02-21T09:57:59;7.78;;;0.25;;
20367;SDS011;10343;52.402;9.796;2024-02-21T10:00:30;9.40;;;0.10;;
20367;SDS011;10343;52.402;9.796;2024-02-21T10:02:58;5.00;;;0.10;;
20367;SDS011;10343;52.402;9.796;2024-02-21T10:05:27;5.40;;;0.10;;
20367;SDS011;10343;52.402;9.796;2024-02-21T10:07:56;4.82;;;0.10;;
20367;SDS011;10343;52.402;9.796;2024-02-21T10:10:24;4.53;;;0.10;;
20367;SDS011;10343;52.402;9.796;2024-02-21T10:12:54;5.15;;;0.10;;
20367;SDS011;10343;52.402;9.796;2024-02-21T10:15:22;6.43;;;0.10;;
20367;SDS011;10343;52.402;9.796;2024-02-21T10:17:58;7.95;;;0.10;;
20367;SDS011;10343;52.402;9.796;2024-02-21T10:20:29;4.05;;;0.15;;
20367;SDS011;10343;52.402;9.796;2024-02-21T10:23:00;5.70;;;0.10;;
20367;SDS011;10343;52.402;9.796;2024-02-21T10:25:29;3.70;;;0.10;;
20367;SDS011;10343;52.402;9.796;2024-02-21T10:27:58;3.45;;;0.10;;
20367;SDS011;10343;52.402;9.796;2024-02-21T10:30:26;4.10;;;0.10;;
20367;SDS011;10343;52.402;9.796;2024-02-21T10:32:54;3.90;;;0.10;;
20367;SDS011;10343;52.402;9.796;2024-02-21T10:35:26;3.65;;;0.10;;
20367;SDS011;10343;52.402;9.796;2024-02-21T10:37:57;5.50;;;0.10;;
20367;SDS011;10343;52.402;9.796;2024-02-21T10:40:27;6.35;;;0.10;;
20367;SDS011;10343;52.402;9.796;2024-02-21T10:42:57;7.82;;;0.10;;
20367;SDS011;10343;52.402;9.796;2024-02-21T10:45:28;5.45;;;0.13;;
20367;SDS011;10343;52.402;9.796;2024-02-21T10:48:01;4.60;;;0.10;;
20367;SDS011;10343;52.402;9.796;2024-02-21T10:50:36;6.55;;;0.10;;
20367;SDS011;10343;52.402;9.796;2024-02-21T10:53:18;0.95;;;0.00;;
20367;SDS011;10343;52.402;9.796;2024-02-21T10:55:57;4.18;;;0.00;;
20367;SDS011;10343;52.402;9.796;2024-02-21T10:58:37;1.75;;;0.00;;
20367;SDS011;10343;52.402;9.796;2024-02-21T11:01:07;4.95;;;0.00;;
20367;SDS011;10343;52.402;9.796;2024-02-21T11:03:35;3.55;;;0.00;;
20367;SDS011;10343;52.402;9.796;2024-02-21T11:06:04;5.07;;;0.00;;
20367;SDS011;10343;52.402;9.796;2024-02-21T11:08:34;5.35;;;0.00;;
20367;SDS011;10343;52.402;9.796;2024-02-21T11:11:02;2.13;;;0.00;;
20367;SDS011;10343;52.402;9.796;2024-02-21T11:13:34;1.23;;;0.00;;
20367;SDS011;10343;52.402;9.796;2024-02-21T11:16:07;2.72;;;0.00;;
20367;SDS011;10343;52.402;9.796;2024-02-21T11:18:37;5.53;;;0.00;;
20367;SDS011;10343;52.402;9.796;2024-02-21T11:21:05;3.75;;;0.00;;
20367;SDS011;10343;52.402;9.796;2024-02-21T11:23:35;3.55;;;0.00;;
20367;SDS011;10343;52.402;9.796;2024-02-21T11:26:06;3.78;;;0.00;;
20367;SDS011;10343;52.402;9.796;2024-02-21T11:28:34;2.83;;;0.00;;
20367;SDS011;10343;52.402;9.796;2024-02-21T11:31:06;7.32;;;0.00;;
20367;SDS011;10343;52.402;9.796;2024-02-21T11:33:34;2.08;;;0.00;;
20367;SDS011;10343;52.402;9.796;2024-02-21T11:36:06;5.10;;;0.10;;
20367;SDS011;10343;52.402;9.796;2024-02-21T11:38:36;10.88;;;0.75;;
20367;SDS011;10343;52.402;9.796;2024-02-21T11:41:04;2.80;;;0.00;;
20367;SDS011;10343;52.402;9.796;2024-02-21T11:43:37;0.43;;;0.00;;
20367;SDS011;10343;52.402;9.796;2024-02-21T11:46:06;1.98;;;0.00;;
20367;SDS011;10343;52.402;9.796;2024-02-21T11:48:34;1.80;;;0.00;;
20367;SDS011;10343;52.402;9.796;2024-02-21T11:51:02;1.95;;;0.00;;
20367;SDS011;10343;52.402;9.796;2024-02-21T11:53:32;2.60;;;0.00;;
20367;SDS011;10343;52.402;9.796;2024-02-21T11:56:10;3.30;;;0.00;;
20367;SDS011;10343;52.402;9.796;2024-02-21T11:58:38;3.38;;;0.00;;
20367;SDS011;10343;52.402;9.796;2024-02-21T12:01:07;2.20;;;0.00;;
20367;SDS011;10343;52.402;9.796;2024-02-21T12:03:35;4.53;;;0.00;;
20367;SDS011;10343;52.402;9.796;2024-02-21T12:06:03;1.13;;;0.00;;
20367;SDS011;10343;52.402;9.796;2024-02-21T12:08:43;3.70;;;0.00;;
20367;SDS011;10343;52.402;9.796;2024-02-21T12:11:22;3.45;;;0.00;;
20367;SDS011;10343;52.402;9.796;2024-02-21T12:13:59;2.72;;;0.00;;
20367;SDS011;10343;52.402;9.796;2024-02-21T12:16:30;8.27;;;0.00;;
20367;SDS011;10343;52.402;9.796;2024-02-21T12:18:58;2.30;;;0.00;;
20367;SDS011;10343;52.402;9.796;2024-02-21T12:21:29;2.00;;;0.00;;
20367;SDS011;10343;52.402;9.796;2024-02-21T12:23:59;2.30;;;0.00;;
20367;SDS011;10343;52.402;9.796;2024-02-21T12:26:28;4.30;;;0.10;;
20367;SDS011;10343;52.402;9.796;2024-02-21T12:28:56;4.40;;;0.00;;
20367;SDS011;10343;52.402;9.796;2024-02-21T12:31:24;1.77;;;0.00;;
20367;SDS011;10343;52.402;9.796;2024-02-21T12:33:52;1.48;;;0.10;;
20367;SDS011;10343;52.402;9.796;2024-02-21T12:36:20;3.10;;;0.10;;
20367;SDS011;10343;52.402;9.796;2024-02-21T12:38:48;2.75;;;0.00;;
20367;SDS011;10343;52.402;9.796;2024-02-21T12:41:16;2.13;;;0.00;;
20367;SDS011;10343;52.402;9.796;2024-02-21T12:43:46;2.75;;;0.00;;
20367;SDS011;10343;52.402;9.796;2024-02-21T12:46:14;4.60;;;0.10;;
20367;SDS011;10343;52.402;9.796;2024-02-21T12:48:42;4.35;;;0.10;;
20367;SDS011;10343;52.402;9.796;2024-02-21T12:51:10;4.97;;;0.10;;
20367;SDS011;10343;52.402;9.796;2024-02-21T12:53:38;2.75;;;0.10;;
20367;SDS011;10343;52.402;9.796;2024-02-21T12:56:07;2.80;;;0.00;;
20367;SDS011;10343;52.402;9.796;2024-02-21T12:58:35;1.92;;;0.10;;
20367;SDS011;10343;52.402;9.796;2024-02-21T13:01:05;2.08;;;0.00;;
20367;SDS011;10343;52.402;9.796;2024-02-21T13:03:33;3.92;;;0.10;;
20367;SDS011;10343;52.402;9.796;2024-02-21T13:06:01;5.07;;;0.10;;
20367;SDS011;10343;52.402;9.796;2024-02-21T13:08:31;3.45;;;0.10;;
20367;SDS011;10343;52.402;9.796;2024-02-21T13:11:01;6.00;;;0.10;;
20367;SDS011;10343;52.402;9.796;2024-02-21T13:13:30;5.93;;;0.10;;
20367;SDS011;10343;52.402;9.796;2024-02-21T13:15:58;7.38;;;0.10;;
20367;SDS011;10343;52.402;9.796;2024-02-21T13:18:28;4.25;;;0.10;;
20367;SDS011;10343;52.402;9.796;2024-02-21T13:20:56;5.03;;;0.10;;
20367;SDS011;10343;52.402;9.796;2024-02-21T13:23:24;4.78;;;0.10;;
20367;SDS011;10343;52.402;9.796;2024-02-21T13:25:52;3.17;;;0.10;;
20367;SDS011;10343;52.402;9.796;2024-02-21T13:28:21;7.13;;;0.10;;
20367;SDS011;10343;52.402;9.796;2024-02-21T13:30:49;3.42;;;0.10;;
20367;SDS011;10343;52.402;9.796;2024-02-21T13:33:17;4.75;;;0.10;;
20367;SDS011;10343;52.402;9.796;2024-02-21T13:35:46;3.15;;;0.10;;
20367;SDS011;10343;52.402;9.796;2024-02-21T13:38:14;4.72;;;0.10;;
20367;SDS011;10343;52.402;9.796;2024-02-21T13:40:42;1.48;;;0.00;;
20367;SDS011;10343;52.402;9.796;2024-02-21T13:43:11;5.22;;;0.10;;
20367;SDS011;10343;52.402;9.796;2024-02-21T13:45:39;3.47;;;0.10;;
20367;SDS011;10343;52.402;9.796;2024-02-21T13:48:09;5.35;;;0.10;;
20367;SDS011;10343;52.402;9.796;2024-02-21T13:50:41;5.82;;;0.05;;
20367;SDS011;10343;52.402;9.796;2024-02-21T13:53:11;2.85;;;0.10;;
20367;SDS011;10343;52.402;9.796;2024-02-21T13:55:39;4.22;;;0.10;;
20367;SDS011;10343;52.402;9.796;2024-02-21T13:58:10;5.40;;;0.10;;
20367;SDS011;10343;52.402;9.796;2024-02-21T14:00:38;4.20;;;0.00;;
20367;SDS011;10343;52.402;9.796;2024-02-21T14:03:06;1.48;;;0.00;;
20367;SDS011;10343;52.402;9.796;2024-02-21T14:05:34;2.35;;;0.00;;
20367;SDS011;10343;52.402;9.796;2024-02-21T14:08:05;4.22;;;0.10;;
20367;SDS011;10343;52.402;9.796;2024-02-21T14:10:35;6.40;;;0.10;;
20367;SDS011;10343;52.402;9.796;2024-02-21T14:13:03;5.22;;;0.00;;
20367;SDS011;10343;52.402;9.796;2024-02-21T14:15:31;1.42;;;0.00;;
20367;SDS011;10343;52.402;9.796;2024-02-21T14:17:59;5.60;;;0.00;;
20367;SDS011;10343;52.402;9.796;2024-02-21T14:20:27;2.80;;;0.00;;
20367;SDS011;10343;52.402;9.796;2024-02-21T14:22:57;1.50;;;0.00;;
20367;SDS011;10343;52.402;9.796;2024-02-21T14:25:25;4.95;;;0.00;;
20367;SDS011;10343;52.402;9.796;2024-02-21T14:27:54;1.88;;;0.00;;
20367;SDS011;10343;52.402;9.796;2024-02-21T14:30:22;3.72;;;0.00;;
20367;SDS011;10343;52.402;9.796;2024-02-21T14:32:51;1.65;;;0.00;;
20367;SDS011;10343;52.402;9.796;2024-02-21T14:35:19;7.70;;;0.00;;
20367;SDS011;10343;52.402;9.796;2024-02-21T14:37:47;1.00;;;0.00;;
20367;SDS011;10343;52.402;9.796;2024-02-21T14:40:16;3.38;;;0.00;;
20367;SDS011;10343;52.402;9.796;2024-02-21T14:42:45;6.80;;;0.00;;
20367;SDS011;10343;52.402;9.796;2024-02-21T14:45:15;3.78;;;0.00;;
20367;SDS011;10343;52.402;9.796;2024-02-21T14:47:43;3.47;;;0.00;;
20367;SDS011;10343;52.402;9.796;2024-02-21T14:50:11;2.33;;;0.00;;
20367;SDS011;10343;52.402;9.796;2024-02-21T14:52:39;7.35;;;0.00;;